DAL4263 KLAX-KLAS
Flight info
| Callsign | DAL4263 |
|---|---|
| Flight time | N/A |
| Altitude | 29000 |
| Route | ORCKA5 MISEN RNDRZ4 |
| Aircraft | B737/M-SDE2E3FGHIRWXY/LB1D1 |
Departure
| Time | 2026-04-21 02:50 |
|---|---|
| Airport | Los Angeles International Airport (KLAX) |
Arrival
| Time | N/A |
|---|---|
| Airport | Harry Reid International Airport (KLAS) |
| Time | Latitude | Longitude | Altitude | Speed | Heading |
|---|---|---|---|---|---|
| 2026-04-21 02:16 | 33.94637 | -118.40840 | 125 ft | 0 kts | 86° |
| 2026-04-21 02:31 | 33.94637 | -118.40847 | 125 ft | 2 kts | 86° |
| 2026-04-21 02:31 | 33.94636 | -118.40867 | 123 ft | 2 kts | 86° |
| 2026-04-21 02:31 | 33.94635 | -118.40887 | 125 ft | 2 kts | 85° |
| 2026-04-21 02:31 | 33.94632 | -118.40906 | 125 ft | 2 kts | 53° |
| 2026-04-21 02:32 | 33.94622 | -118.40915 | 119 ft | 1 kts | 356° |
| 2026-04-21 02:32 | 33.94615 | -118.40914 | 124 ft | 0 kts | 347° |
| 2026-04-21 02:37 | 33.94627 | -118.40915 | 119 ft | 5 kts | 0° |
| 2026-04-21 02:37 | 33.94679 | -118.40912 | 122 ft | 10 kts | 2° |
| 2026-04-21 02:37 | 33.94755 | -118.40897 | 121 ft | 11 kts | 18° |
| 2026-04-21 02:38 | 33.94819 | -118.40922 | 122 ft | 11 kts | 290° |
| 2026-04-21 02:38 | 33.94822 | -118.41010 | 125 ft | 10 kts | 265° |
| 2026-04-21 02:38 | 33.94814 | -118.41095 | 125 ft | 10 kts | 264° |
| 2026-04-21 02:38 | 33.94806 | -118.41195 | 124 ft | 14 kts | 264° |
| 2026-04-21 02:39 | 33.94760 | -118.41287 | 121 ft | 13 kts | 201° |
| 2026-04-21 02:39 | 33.94670 | -118.41283 | 123 ft | 13 kts | 175° |
| 2026-04-21 02:39 | 33.94583 | -118.41270 | 123 ft | 12 kts | 173° |
| 2026-04-21 02:39 | 33.94499 | -118.41259 | 123 ft | 12 kts | 173° |
| 2026-04-21 02:40 | 33.94403 | -118.41244 | 122 ft | 16 kts | 173° |
| 2026-04-21 02:40 | 33.94287 | -118.41228 | 122 ft | 17 kts | 173° |
| 2026-04-21 02:40 | 33.94172 | -118.41211 | 122 ft | 17 kts | 173° |
| 2026-04-21 02:40 | 33.94058 | -118.41195 | 120 ft | 16 kts | 173° |
| 2026-04-21 02:41 | 33.93951 | -118.41179 | 123 ft | 16 kts | 173° |
| 2026-04-21 02:41 | 33.93840 | -118.41153 | 122 ft | 16 kts | 165° |
| 2026-04-21 02:41 | 33.93771 | -118.41070 | 123 ft | 15 kts | 89° |
| 2026-04-21 02:41 | 33.93782 | -118.40945 | 121 ft | 15 kts | 83° |
| 2026-04-21 02:42 | 33.93794 | -118.40822 | 123 ft | 16 kts | 83° |
| 2026-04-21 02:42 | 33.93808 | -118.40696 | 125 ft | 15 kts | 83° |
| 2026-04-21 02:42 | 33.93820 | -118.40576 | 125 ft | 14 kts | 83° |
| 2026-04-21 02:42 | 33.93832 | -118.40463 | 125 ft | 13 kts | 83° |
| 2026-04-21 02:43 | 33.93843 | -118.40355 | 125 ft | 13 kts | 83° |
| 2026-04-21 02:43 | 33.93853 | -118.40250 | 121 ft | 12 kts | 83° |
| 2026-04-21 02:43 | 33.93855 | -118.40240 | 123 ft | 0 kts | 83° |
| 2026-04-21 02:44 | 33.93858 | -118.40204 | 125 ft | 8 kts | 83° |
| 2026-04-21 02:44 | 33.93868 | -118.40106 | 121 ft | 16 kts | 83° |
| 2026-04-21 02:44 | 33.93886 | -118.39928 | 125 ft | 28 kts | 82° |
| 2026-04-21 02:45 | 33.93910 | -118.39718 | 123 ft | 21 kts | 82° |
| 2026-04-21 02:45 | 33.93929 | -118.39548 | 125 ft | 20 kts | 82° |
| 2026-04-21 02:45 | 33.93948 | -118.39383 | 125 ft | 20 kts | 82° |
| 2026-04-21 02:45 | 33.93962 | -118.39222 | 124 ft | 19 kts | 84° |
| 2026-04-21 02:46 | 33.93976 | -118.39068 | 125 ft | 18 kts | 84° |
| 2026-04-21 02:46 | 33.93990 | -118.38918 | 125 ft | 18 kts | 84° |
| 2026-04-21 02:46 | 33.94004 | -118.38774 | 125 ft | 17 kts | 82° |
| 2026-04-21 02:46 | 33.94020 | -118.38634 | 125 ft | 17 kts | 82° |
| 2026-04-21 02:47 | 33.94034 | -118.38486 | 125 ft | 18 kts | 83° |
| 2026-04-21 02:47 | 33.94049 | -118.38338 | 125 ft | 17 kts | 83° |
| 2026-04-21 02:47 | 33.94063 | -118.38202 | 125 ft | 13 kts | 83° |
| 2026-04-21 02:47 | 33.94069 | -118.38135 | 122 ft | 6 kts | 83° |
| 2026-04-21 02:48 | 33.94074 | -118.38085 | 125 ft | 6 kts | 83° |
| 2026-04-21 02:48 | 33.94066 | -118.38036 | 124 ft | 6 kts | 115° |
| 2026-04-21 02:48 | 33.94031 | -118.38010 | 122 ft | 8 kts | 170° |
| 2026-04-21 02:48 | 33.93975 | -118.38075 | 125 ft | 17 kts | 264° |
| 2026-04-21 02:49 | 33.93949 | -118.38352 | 125 ft | 66 kts | 263° |
| 2026-04-21 02:49 | 33.93864 | -118.39199 | 122 ft | 135 kts | 263° |
| 2026-04-21 02:49 | 33.93733 | -118.40552 | 158 ft | 185 kts | 263° |
| 2026-04-21 02:49 | 33.93574 | -118.42186 | 538 ft | 209 kts | 263° |
| 2026-04-21 02:50 | 33.93387 | -118.44022 | 1065 ft | 228 kts | 263° |
| 2026-04-21 02:50 | 33.93228 | -118.45954 | 1885 ft | 235 kts | 265° |
| 2026-04-21 02:50 | 33.93143 | -118.47967 | 2460 ft | 251 kts | 269° |
| 2026-04-21 02:50 | 33.93144 | -118.50254 | 1800 ft | 305 kts | 271° |
| 2026-04-21 02:51 | 33.93261 | -118.52926 | 2229 ft | 317 kts | 277° |
| 2026-04-21 02:51 | 33.93895 | -118.55404 | 3381 ft | 306 kts | 300° |
| 2026-04-21 02:51 | 33.95261 | -118.57284 | 4412 ft | 292 kts | 322° |
| 2026-04-21 02:51 | 33.96561 | -118.59052 | 4683 ft | 281 kts | 295° |
| 2026-04-21 02:52 | 33.97011 | -118.61291 | 4633 ft | 270 kts | 270° |
| 2026-04-21 02:52 | 33.96780 | -118.63530 | 4555 ft | 272 kts | 255° |
| 2026-04-21 02:52 | 33.96189 | -118.65721 | 4110 ft | 276 kts | 253° |
| 2026-04-21 02:52 | 33.95758 | -118.67925 | 3759 ft | 275 kts | 260° |
| 2026-04-21 02:53 | 33.95457 | -118.70137 | 3847 ft | 257 kts | 261° |